Filia Joy — 3FIN9 — position and weather

sailwx.info

Track history (hours):
 
Tides and Currents Weather Stations Pressure Air Temp Water Temp Dewpoint Dewpoint Depression Visibility Wind Speed Wind Dir Waves Ship Positions

Filia Joy

Last reported at 2018-Mar-04 22:55 UTC. Time now 2018-Apr-26 07:57 UTC.
Position N 01°15' E 103°23'.
Warning: this ship's position is 52 days out of date.

Length 190 m; draft 9.6 m.

Type: Cargo ship. MMSI: 371999000.

Date/timePositionNaut miles runAvg speedWind from/ knotsBaromVisibWave heightAir tempDewpointWater temp
2018-Mar-04 22:55N 01°15' E 103°23'713.0
2018-Mar-04 22:20N 01°12' E 103°30'512.8
2018-Mar-04 21:59N 01°11' E 103°35'611.8
2018-Mar-04 21:29N 01°11' E 103°40'510.9
2018-Mar-04 20:59N 01°09' E 103°46'612.2
2018-Mar-04 20:30N 01°12' E 103°51'712.2
2018-Mar-04 19:56N 01°15' E 103°57'9 0.7
2018-Mar-04 07:38N 01°18' E 104°05'1 2.3
2018-Mar-04 07:21N 01°19' E 104°04'  
2018-Feb-27 03:15N 23°08' E 117°23'712.3
2018-Feb-27 02:38N 23°14' E 117°28'212.3
2018-Feb-27 02:28N 23°15' E 117°30'612.1
2018-Feb-27 01:59N 23°19' E 117°35'612.1
2018-Feb-27 01:30N 23°23' E 117°40'612.1
2018-Feb-27 01:00N 23°26' E 117°45'611.7
2018-Feb-27 00:30N 23°30' E 117°50'611.5
2018-Feb-26 23:59N 23°34' E 117°55'611.5
2018-Feb-26 23:27N 23°38' E 117°60'511.1
2018-Feb-26 22:59N 23°42' E 118°04'511.1
2018-Feb-26 22:30N 23°45' E 118°08'1311.0
2018-Feb-26 21:18N 23°54' E 118°19'311.0
2018-Feb-26 21:00N 23°56' E 118°22'511.1
2018-Feb-26 20:30N 23°60' E 118°26'711.1
2018-Feb-26 19:54N 24°04' E 118°32'411.1
2018-Feb-26 19:30N 24°07' E 118°36'1411.5
2018-Feb-26 18:16N 24°16' E 118°47'  
Track history (hours):
 
Tides and Currents Weather Stations Pressure Air Temp Water Temp Dewpoint Dewpoint Depression Visibility Wind Speed Wind Dir Waves Ship Positions

Filia Joy

Last reported at 2018-Mar-04 22:55 UTC. Time now 2018-Apr-26 07:57 UTC.
Position N 01°15' E 103°23'.
Warning: this ship's position is 52 days out of date.

Length 190 m; draft 9.6 m.

Type: Cargo ship. MMSI: 371999000.

Date/timePositionNaut miles runAvg speedWind from/ knotsBaromVisibWave heightAir tempDewpointWater temp
2018-Mar-04 22:55N 01°15' E 103°23'713.0
2018-Mar-04 22:20N 01°12' E 103°30'512.8
2018-Mar-04 21:59N 01°11' E 103°35'611.8
2018-Mar-04 21:29N 01°11' E 103°40'510.9
2018-Mar-04 20:59N 01°09' E 103°46'612.2
2018-Mar-04 20:30N 01°12' E 103°51'712.2
2018-Mar-04 19:56N 01°15' E 103°57'9 0.7
2018-Mar-04 07:38N 01°18' E 104°05'1 2.3
2018-Mar-04 07:21N 01°19' E 104°04'  
2018-Feb-27 03:15N 23°08' E 117°23'712.3
2018-Feb-27 02:38N 23°14' E 117°28'212.3
2018-Feb-27 02:28N 23°15' E 117°30'612.1
2018-Feb-27 01:59N 23°19' E 117°35'612.1
2018-Feb-27 01:30N 23°23' E 117°40'612.1
2018-Feb-27 01:00N 23°26' E 117°45'611.7
2018-Feb-27 00:30N 23°30' E 117°50'611.5
2018-Feb-26 23:59N 23°34' E 117°55'611.5
2018-Feb-26 23:27N 23°38' E 117°60'511.1
2018-Feb-26 22:59N 23°42' E 118°04'511.1
2018-Feb-26 22:30N 23°45' E 118°08'1311.0
2018-Feb-26 21:18N 23°54' E 118°19'311.0
2018-Feb-26 21:00N 23°56' E 118°22'511.1
2018-Feb-26 20:30N 23°60' E 118°26'711.1
2018-Feb-26 19:54N 24°04' E 118°32'411.1
2018-Feb-26 19:30N 24°07' E 118°36'1411.5
2018-Feb-26 18:16N 24°16' E 118°47'  

Dump ship's entire track history